Terminal Aerodrome Forecast
Issued by NWS

Home | Current Version | Previous Version | Text Only | Print | Product List | Glossary On
Versions: 1 2 3 4 5 6 7 8 9 10 11 12 13 14 15 16 17 18 19 20 21 22 23
000
FTUS46 KSTO 252300
TAFSMF
TAF
KSMF 252337Z 2600/2624 VRB03KT P6SM SKC
     FM260300 00000KT 4SM BR SKC
     FM260800 VRB03KT 1/2SM FG SKC
     FM261200 34003KT 1/4SM FG VV001
     FM261900 34004KT 2SM BR FEW250
     FM262100 33005KT 6SM HZ OVC250=

USA.gov is the U.S. government's official web portal to all federal, state and local government web resources and services.